sensor_id;sensor_type;location;lat;lon;timestamp;pressure;altitude;pressure_sealevel;temperature;humidity
72110;BME280;59983;52.010;5.420;2023-04-06T00:00:14;101852.81;;;5.20;71.37
72110;BME280;59983;52.010;5.420;2023-04-06T00:02:42;101853.25;;;5.03;72.14
72110;BME280;59983;52.010;5.420;2023-04-06T00:05:08;101849.84;;;4.92;72.21
72110;BME280;59983;52.010;5.420;2023-04-06T00:07:35;101851.00;;;4.86;72.81
72110;BME280;59983;52.010;5.420;2023-04-06T00:10:02;101852.63;;;4.82;72.97
72110;BME280;59983;52.010;5.420;2023-04-06T00:12:29;101849.41;;;4.80;73.02
72110;BME280;59983;52.010;5.420;2023-04-06T00:14:56;101853.38;;;4.88;73.51
72110;BME280;59983;52.010;5.420;2023-04-06T00:17:22;101843.56;;;5.02;72.42
72110;BME280;59983;52.010;5.420;2023-04-06T00:19:49;101844.38;;;5.02;72.29
72110;BME280;59983;52.010;5.420;2023-04-06T00:22:15;101830.38;;;5.05;72.20
72110;BME280;59983;52.010;5.420;2023-04-06T00:24:42;101846.16;;;5.12;72.39
72110;BME280;59983;52.010;5.420;2023-04-06T00:27:08;101842.66;;;5.17;72.29
72110;BME280;59983;52.010;5.420;2023-04-06T00:29:35;101837.16;;;5.27;72.46
72110;BME280;59983;52.010;5.420;2023-04-06T00:32:01;101829.91;;;5.51;71.46
72110;BME280;59983;52.010;5.420;2023-04-06T00:34:28;101821.59;;;5.72;69.86
72110;BME280;59983;52.010;5.420;2023-04-06T00:36:55;101818.53;;;5.83;68.99
72110;BME280;59983;52.010;5.420;2023-04-06T00:39:21;101827.84;;;5.91;68.10
72110;BME280;59983;52.010;5.420;2023-04-06T00:41:51;101810.53;;;5.97;67.99
72110;BME280;59983;52.010;5.420;2023-04-06T00:44:19;101809.59;;;5.83;68.18
72110;BME280;59983;52.010;5.420;2023-04-06T00:46:45;101806.03;;;5.68;68.67
72110;BME280;59983;52.010;5.420;2023-04-06T00:49:12;101812.91;;;5.56;69.92
72110;BME280;59983;52.010;5.420;2023-04-06T00:51:39;101809.31;;;5.42;69.70
72110;BME280;59983;52.010;5.420;2023-04-06T00:54:05;101807.47;;;5.13;70.24
72110;BME280;59983;52.010;5.420;2023-04-06T00:56:32;101806.91;;;5.11;70.32
72110;BME280;59983;52.010;5.420;2023-04-06T00:58:58;101801.50;;;5.16;70.67
72110;BME280;59983;52.010;5.420;2023-04-06T01:01:25;101803.31;;;5.21;70.58
72110;BME280;59983;52.010;5.420;2023-04-06T01:03:52;101801.41;;;5.26;70.46
72110;BME280;59983;52.010;5.420;2023-04-06T01:06:20;101799.47;;;5.32;70.49
72110;BME280;59983;52.010;5.420;2023-04-06T01:08:46;101786.13;;;5.46;70.14
72110;BME280;59983;52.010;5.420;2023-04-06T01:11:13;101779.59;;;5.52;69.93
72110;BME280;59983;52.010;5.420;2023-04-06T01:13:39;101785.25;;;5.50;70.12
72110;BME280;59983;52.010;5.420;2023-04-06T01:16:06;101786.13;;;5.46;70.57
72110;BME280;59983;52.010;5.420;2023-04-06T01:18:33;101776.69;;;5.48;71.26
72110;BME280;59983;52.010;5.420;2023-04-06T01:20:59;101782.50;;;5.55;70.25
72110;BME280;59983;52.010;5.420;2023-04-06T01:23:27;101783.66;;;5.49;71.40
72110;BME280;59983;52.010;5.420;2023-04-06T01:25:54;101770.78;;;5.46;71.89
72110;BME280;59983;52.010;5.420;2023-04-06T01:28:20;101774.25;;;5.47;71.77
72110;BME280;59983;52.010;5.420;2023-04-06T01:30:47;101778.03;;;5.46;71.98
72110;BME280;59983;52.010;5.420;2023-04-06T01:33:13;101773.63;;;5.55;71.91
72110;BME280;59983;52.010;5.420;2023-04-06T01:35:40;101766.00;;;5.62;71.85
72110;BME280;59983;52.010;5.420;2023-04-06T01:38:06;101759.94;;;5.75;71.29
72110;BME280;59983;52.010;5.420;2023-04-06T01:40:33;101761.44;;;5.81;70.25
72110;BME280;59983;52.010;5.420;2023-04-06T01:42:59;101756.31;;;5.85;70.49
72110;BME280;59983;52.010;5.420;2023-04-06T01:45:26;101761.09;;;5.88;70.48
72110;BME280;59983;52.010;5.420;2023-04-06T01:47:53;101753.53;;;5.90;70.97
72110;BME280;59983;52.010;5.420;2023-04-06T01:50:19;101749.41;;;5.97;70.42
72110;BME280;59983;52.010;5.420;2023-04-06T01:52:46;101746.25;;;6.09;69.97
72110;BME280;59983;52.010;5.420;2023-04-06T01:55:12;101746.72;;;6.16;68.86
72110;BME280;59983;52.010;5.420;2023-04-06T01:57:39;101744.44;;;6.23;68.66
72110;BME280;59983;52.010;5.420;2023-04-06T02:00:06;101740.59;;;6.30;67.25
72110;BME280;59983;52.010;5.420;2023-04-06T02:02:33;101739.69;;;6.34;67.56
72110;BME280;59983;52.010;5.420;2023-04-06T02:04:59;101738.09;;;6.33;67.11
72110;BME280;59983;52.010;5.420;2023-04-06T02:07:26;101732.00;;;6.28;67.40
72110;BME280;59983;52.010;5.420;2023-04-06T02:09:55;101727.19;;;6.24;67.51
72110;BME280;59983;52.010;5.420;2023-04-06T02:12:22;101730.91;;;6.29;67.58
72110;BME280;59983;52.010;5.420;2023-04-06T02:14:50;101720.25;;;6.37;67.02
72110;BME280;59983;52.010;5.420;2023-04-06T02:17:16;101715.88;;;6.41;66.83
72110;BME280;59983;52.010;5.420;2023-04-06T02:19:43;101717.16;;;6.44;66.81
72110;BME280;59983;52.010;5.420;2023-04-06T02:22:09;101716.31;;;6.48;65.83
72110;BME280;59983;52.010;5.420;2023-04-06T02:24:36;101711.63;;;6.54;65.78
72110;BME280;59983;52.010;5.420;2023-04-06T02:27:03;101707.53;;;6.57;65.70
72110;BME280;59983;52.010;5.420;2023-04-06T02:29:29;101705.16;;;6.55;65.22
72110;BME280;59983;52.010;5.420;2023-04-06T02:31:56;101700.97;;;6.63;64.63
72110;BME280;59983;52.010;5.420;2023-04-06T02:34:22;101707.97;;;6.64;64.70
72110;BME280;59983;52.010;5.420;2023-04-06T02:36:49;101706.38;;;6.63;65.06
72110;BME280;59983;52.010;5.420;2023-04-06T02:39:15;101702.66;;;6.59;64.56
72110;BME280;59983;52.010;5.420;2023-04-06T02:41:42;101700.56;;;6.56;65.13
72110;BME280;59983;52.010;5.420;2023-04-06T02:44:09;101701.78;;;6.63;64.73
72110;BME280;59983;52.010;5.420;2023-04-06T02:46:35;101692.59;;;6.64;64.34
72110;BME280;59983;52.010;5.420;2023-04-06T02:49:02;101702.16;;;6.70;64.51
72110;BME280;59983;52.010;5.420;2023-04-06T02:51:28;101688.00;;;6.65;64.61
72110;BME280;59983;52.010;5.420;2023-04-06T02:53:55;101682.19;;;6.58;64.59
72110;BME280;59983;52.010;5.420;2023-04-06T02:56:22;101683.28;;;6.57;64.96
72110;BME280;59983;52.010;5.420;2023-04-06T02:58:48;101682.47;;;6.56;64.75
72110;BME280;59983;52.010;5.420;2023-04-06T03:01:15;101679.00;;;6.56;65.38
72110;BME280;59983;52.010;5.420;2023-04-06T03:03:41;101665.72;;;6.59;64.77
72110;BME280;59983;52.010;5.420;2023-04-06T03:06:08;101675.31;;;6.65;64.63
72110;BME280;59983;52.010;5.420;2023-04-06T03:08:35;101668.69;;;6.71;64.02
72110;BME280;59983;52.010;5.420;2023-04-06T03:11:01;101669.72;;;6.75;64.20
72110;BME280;59983;52.010;5.420;2023-04-06T03:13:28;101666.00;;;6.71;64.20
72110;BME280;59983;52.010;5.420;2023-04-06T03:15:54;101663.22;;;6.76;64.13
72110;BME280;59983;52.010;5.420;2023-04-06T03:18:22;101659.72;;;6.76;64.40
72110;BME280;59983;52.010;5.420;2023-04-06T03:20:49;101657.53;;;6.78;64.10
72110;BME280;59983;52.010;5.420;2023-04-06T03:23:16;101651.34;;;6.77;64.48
72110;BME280;59983;52.010;5.420;2023-04-06T03:25:43;101657.84;;;6.76;64.09
72110;BME280;59983;52.010;5.420;2023-04-06T03:28:09;101658.13;;;6.75;64.11
72110;BME280;59983;52.010;5.420;2023-04-06T03:30:36;101653.63;;;6.70;64.64
72110;BME280;59983;52.010;5.420;2023-04-06T03:33:03;101663.72;;;6.65;63.90
72110;BME280;59983;52.010;5.420;2023-04-06T03:35:30;101656.94;;;6.67;64.22
72110;BME280;59983;52.010;5.420;2023-04-06T03:37:56;101655.03;;;6.68;64.39
72110;BME280;59983;52.010;5.420;2023-04-06T03:40:23;101651.34;;;6.64;65.37
72110;BME280;59983;52.010;5.420;2023-04-06T03:42:50;101650.44;;;6.55;65.55
72110;BME280;59983;52.010;5.420;2023-04-06T03:45:17;101649.91;;;6.52;65.63
72110;BME280;59983;52.010;5.420;2023-04-06T03:47:43;101650.81;;;6.62;65.13
72110;BME280;59983;52.010;5.420;2023-04-06T03:50:10;101635.56;;;6.71;64.78
72110;BME280;59983;52.010;5.420;2023-04-06T03:52:36;101640.38;;;6.74;64.55
72110;BME280;59983;52.010;5.420;2023-04-06T03:55:03;101638.78;;;6.73;64.52
72110;BME280;59983;52.010;5.420;2023-04-06T03:57:30;101641.44;;;6.59;65.23
72110;BME280;59983;52.010;5.420;2023-04-06T03:59:57;101644.81;;;6.51;65.20
72110;BME280;59983;52.010;5.420;2023-04-06T04:02:23;101652.31;;;6.40;65.97
72110;BME280;59983;52.010;5.420;2023-04-06T04:04:50;101650.91;;;6.43;65.90
72110;BME280;59983;52.010;5.420;2023-04-06T04:07:17;101651.19;;;6.41;65.89
72110;BME280;59983;52.010;5.420;2023-04-06T04:09:43;101652.59;;;6.39;66.54
72110;BME280;59983;52.010;5.420;2023-04-06T04:12:10;101653.19;;;6.36;66.37
72110;BME280;59983;52.010;5.420;2023-04-06T04:14:36;101646.19;;;6.35;66.68
72110;BME280;59983;52.010;5.420;2023-04-06T04:17:03;101646.19;;;6.35;66.67
72110;BME280;59983;52.010;5.420;2023-04-06T04:19:29;101640.22;;;6.38;66.35
72110;BME280;59983;52.010;5.420;2023-04-06T04:21:56;101641.41;;;6.32;66.76
72110;BME280;59983;52.010;5.420;2023-04-06T04:24:22;101634.53;;;6.39;66.43
72110;BME280;59983;52.010;5.420;2023-04-06T04:26:49;101633.63;;;6.44;65.93
72110;BME280;59983;52.010;5.420;2023-04-06T04:29:15;101637.03;;;6.49;65.44
72110;BME280;59983;52.010;5.420;2023-04-06T04:31:42;101628.09;;;6.54;65.25
72110;BME280;59983;52.010;5.420;2023-04-06T04:34:09;101640.47;;;6.55;65.19
72110;BME280;59983;52.010;5.420;2023-04-06T04:36:35;101636.06;;;6.45;65.95
72110;BME280;59983;52.010;5.420;2023-04-06T04:39:02;101639.13;;;6.39;65.98
72110;BME280;59983;52.010;5.420;2023-04-06T04:41:29;101632.75;;;6.48;66.10
72110;BME280;59983;52.010;5.420;2023-04-06T04:43:55;101630.66;;;6.59;65.40
72110;BME280;59983;52.010;5.420;2023-04-06T04:46:22;101627.66;;;6.61;65.92
72110;BME280;59983;52.010;5.420;2023-04-06T04:48:49;101632.56;;;6.59;65.67
72110;BME280;59983;52.010;5.420;2023-04-06T04:51:15;101631.97;;;6.48;65.99
72110;BME280;59983;52.010;5.420;2023-04-06T04:53:42;101635.25;;;6.45;66.16
72110;BME280;59983;52.010;5.420;2023-04-06T04:56:08;101634.34;;;6.49;66.21
72110;BME280;59983;52.010;5.420;2023-04-06T04:58:35;101634.97;;;6.60;65.51
72110;BME280;59983;52.010;5.420;2023-04-06T05:01:02;101623.38;;;6.60;65.44
72110;BME280;59983;52.010;5.420;2023-04-06T05:03:28;101630.34;;;6.61;65.34
72110;BME280;59983;52.010;5.420;2023-04-06T05:05:55;101630.28;;;6.66;65.73
72110;BME280;59983;52.010;5.420;2023-04-06T05:08:22;101627.28;;;6.67;65.59
72110;BME280;59983;52.010;5.420;2023-04-06T05:10:48;101629.88;;;6.72;65.39
72110;BME280;59983;52.010;5.420;2023-04-06T05:13:15;101624.38;;;6.77;64.95
72110;BME280;59983;52.010;5.420;2023-04-06T05:15:42;101620.00;;;6.81;65.36
72110;BME280;59983;52.010;5.420;2023-04-06T05:18:09;101618.41;;;6.80;65.19
72110;BME280;59983;52.010;5.420;2023-04-06T05:20:37;101617.81;;;6.84;65.39
72110;BME280;59983;52.010;5.420;2023-04-06T05:23:03;101613.19;;;6.84;65.69
72110;BME280;59983;52.010;5.420;2023-04-06T05:25:31;101612.72;;;6.82;65.52
72110;BME280;59983;52.010;5.420;2023-04-06T05:27:58;101611.00;;;6.86;65.40
72110;BME280;59983;52.010;5.420;2023-04-06T05:30:25;101603.41;;;6.88;65.22
72110;BME280;59983;52.010;5.420;2023-04-06T05:32:51;101615.06;;;6.97;64.94
72110;BME280;59983;52.010;5.420;2023-04-06T05:35:18;101609.91;;;7.01;65.65
72110;BME280;59983;52.010;5.420;2023-04-06T05:37:45;101612.78;;;7.04;65.38
72110;BME280;59983;52.010;5.420;2023-04-06T05:40:12;101607.69;;;7.03;65.35
72110;BME280;59983;52.010;5.420;2023-04-06T05:42:39;101609.91;;;7.01;65.70
72110;BME280;59983;52.010;5.420;2023-04-06T05:45:08;101606.00;;;7.07;65.80
72110;BME280;59983;52.010;5.420;2023-04-06T05:47:35;101603.31;;;7.07;66.17
72110;BME280;59983;52.010;5.420;2023-04-06T05:50:01;101606.38;;;7.14;65.80
72110;BME280;59983;52.010;5.420;2023-04-06T05:52:28;101609.06;;;7.14;66.10
72110;BME280;59983;52.010;5.420;2023-04-06T05:54:54;101608.28;;;7.14;66.30
72110;BME280;59983;52.010;5.420;2023-04-06T05:57:21;101605.47;;;7.19;65.75
72110;BME280;59983;52.010;5.420;2023-04-06T05:59:48;101611.53;;;7.24;65.97
72110;BME280;59983;52.010;5.420;2023-04-06T06:02:14;101616.84;;;7.29;65.93
72110;BME280;59983;52.010;5.420;2023-04-06T06:04:41;101604.03;;;7.35;65.59
72110;BME280;59983;52.010;5.420;2023-04-06T06:07:07;101609.31;;;7.40;65.72
72110;BME280;59983;52.010;5.420;2023-04-06T06:09:34;101613.50;;;7.46;65.67
72110;BME280;59983;52.010;5.420;2023-04-06T06:12:01;101609.06;;;7.50;65.57
72110;BME280;59983;52.010;5.420;2023-04-06T06:14:27;101609.06;;;7.50;65.25
72110;BME280;59983;52.010;5.420;2023-04-06T06:16:57;101606.31;;;7.42;66.29
72110;BME280;59983;52.010;5.420;2023-04-06T06:19:24;101613.69;;;7.50;65.66
72110;BME280;59983;52.010;5.420;2023-04-06T06:21:50;101612.47;;;7.56;64.66
72110;BME280;59983;52.010;5.420;2023-04-06T06:24:17;101609.47;;;7.57;64.97
72110;BME280;59983;52.010;5.420;2023-04-06T06:26:43;101610.06;;;7.54;65.58
72110;BME280;59983;52.010;5.420;2023-04-06T06:29:10;101617.94;;;7.64;65.43
72110;BME280;59983;52.010;5.420;2023-04-06T06:31:37;101604.25;;;7.61;65.68
72110;BME280;59983;52.010;5.420;2023-04-06T06:34:03;101615.41;;;7.68;66.08
72110;BME280;59983;52.010;5.420;2023-04-06T06:36:30;101618.94;;;7.69;66.22
72110;BME280;59983;52.010;5.420;2023-04-06T06:38:57;101617.69;;;7.75;66.26
72110;BME280;59983;52.010;5.420;2023-04-06T06:41:25;101621.56;;;7.82;66.26
72110;BME280;59983;52.010;5.420;2023-04-06T06:43:52;101614.16;;;7.88;66.25
72110;BME280;59983;52.010;5.420;2023-04-06T06:46:20;101618.19;;;7.99;66.17
72110;BME280;59983;52.010;5.420;2023-04-06T06:48:47;101613.63;;;8.08;65.49
72110;BME280;59983;52.010;5.420;2023-04-06T06:51:13;101608.41;;;8.12;65.53
72110;BME280;59983;52.010;5.420;2023-04-06T06:53:40;101615.97;;;8.23;66.42
72110;BME280;59983;52.010;5.420;2023-04-06T06:56:06;101617.47;;;8.38;65.59
72110;BME280;59983;52.010;5.420;2023-04-06T06:58:33;101616.72;;;8.46;65.79
72110;BME280;59983;52.010;5.420;2023-04-06T07:00:59;101614.03;;;8.46;64.67
72110;BME280;59983;52.010;5.420;2023-04-06T07:03:26;101612.59;;;8.40;63.88
72110;BME280;59983;52.010;5.420;2023-04-06T07:05:53;101613.78;;;8.34;64.52
72110;BME280;59983;52.010;5.420;2023-04-06T07:08:21;101605.38;;;8.36;64.59
72110;BME280;59983;52.010;5.420;2023-04-06T07:10:49;101596.50;;;8.35;64.99
72110;BME280;59983;52.010;5.420;2023-04-06T07:13:17;101596.06;;;8.42;64.40
72110;BME280;59983;52.010;5.420;2023-04-06T07:15:48;101598.06;;;8.36;65.79
72110;BME280;59983;52.010;5.420;2023-04-06T07:18:16;101596.97;;;8.37;65.61
72110;BME280;59983;52.010;5.420;2023-04-06T07:20:42;101589.66;;;8.38;65.15
72110;BME280;59983;52.010;5.420;2023-04-06T07:23:09;101588.72;;;8.42;64.85
72110;BME280;59983;52.010;5.420;2023-04-06T07:25:36;101586.84;;;8.51;64.92
72110;BME280;59983;52.010;5.420;2023-04-06T07:28:03;101597.19;;;8.49;65.30
72110;BME280;59983;52.010;5.420;2023-04-06T07:30:30;101601.00;;;8.48;64.82
72110;BME280;59983;52.010;5.420;2023-04-06T07:32:58;101593.69;;;8.49;64.61
72110;BME280;59983;52.010;5.420;2023-04-06T07:35:28;101597.19;;;8.49;65.07
72110;BME280;59983;52.010;5.420;2023-04-06T07:37:56;101601.19;;;8.52;64.97
72110;BME280;59983;52.010;5.420;2023-04-06T07:40:23;101583.25;;;8.65;64.10
72110;BME280;59983;52.010;5.420;2023-04-06T07:42:49;101589.44;;;8.65;64.71
72110;BME280;59983;52.010;5.420;2023-04-06T07:45:16;101587.56;;;8.66;64.95
72110;BME280;59983;52.010;5.420;2023-04-06T07:47:43;101590.44;;;8.78;64.37
72110;BME280;59983;52.010;5.420;2023-04-06T07:50:10;101582.16;;;8.83;63.81
72110;BME280;59983;52.010;5.420;2023-04-06T07:52:36;101573.44;;;8.86;64.13
72110;BME280;59983;52.010;5.420;2023-04-06T07:55:04;101579.34;;;8.97;64.09
72110;BME280;59983;52.010;5.420;2023-04-06T07:57:31;101584.00;;;9.05;63.95
72110;BME280;59983;52.010;5.420;2023-04-06T07:59:57;101582.88;;;9.15;63.86
72110;BME280;59983;52.010;5.420;2023-04-06T08:02:24;101583.03;;;9.18;63.92
72110;BME280;59983;52.010;5.420;2023-04-06T08:04:51;101585.94;;;9.30;63.74
72110;BME280;59983;52.010;5.420;2023-04-06T08:07:17;101585.94;;;9.39;63.83
72110;BME280;59983;52.010;5.420;2023-04-06T08:09:44;101584.50;;;9.42;63.09
72110;BME280;59983;52.010;5.420;2023-04-06T08:12:10;101586.72;;;9.40;63.47
72110;BME280;59983;52.010;5.420;2023-04-06T08:14:37;101583.06;;;9.53;63.59
72110;BME280;59983;52.010;5.420;2023-04-06T08:17:03;101587.06;;;9.55;63.25
72110;BME280;59983;52.010;5.420;2023-04-06T08:19:32;101584.97;;;9.61;63.63
72110;BME280;59983;52.010;5.420;2023-04-06T08:21:58;101583.84;;;9.62;63.59
72110;BME280;59983;52.010;5.420;2023-04-06T08:24:25;101580.84;;;9.72;63.78
72110;BME280;59983;52.010;5.420;2023-04-06T08:26:52;101580.97;;;9.76;62.58
72110;BME280;59983;52.010;5.420;2023-04-06T08:29:19;101586.84;;;9.86;62.36
72110;BME280;59983;52.010;5.420;2023-04-06T08:31:45;101575.84;;;9.91;63.31
72110;BME280;59983;52.010;5.420;2023-04-06T08:34:12;101575.06;;;9.91;62.99
72110;BME280;59983;52.010;5.420;2023-04-06T08:36:40;101587.47;;;10.01;63.00
72110;BME280;59983;52.010;5.420;2023-04-06T08:39:07;101584.09;;;10.04;61.98
72110;BME280;59983;52.010;5.420;2023-04-06T08:41:34;101580.47;;;9.91;61.72
72110;BME280;59983;52.010;5.420;2023-04-06T08:44:01;101584.56;;;10.06;61.55
72110;BME280;59983;52.010;5.420;2023-04-06T08:46:30;101585.84;;;10.17;61.04
72110;BME280;59983;52.010;5.420;2023-04-06T08:48:58;101583.44;;;10.15;61.39
72110;BME280;59983;52.010;5.420;2023-04-06T08:51:26;101578.84;;;10.16;60.79
72110;BME280;59983;52.010;5.420;2023-04-06T08:53:57;101579.91;;;10.32;61.87
72110;BME280;59983;52.010;5.420;2023-04-06T08:56:25;101584.50;;;10.40;60.67
72110;BME280;59983;52.010;5.420;2023-04-06T08:58:53;101589.44;;;10.38;59.31
72110;BME280;59983;52.010;5.420;2023-04-06T09:01:23;101589.63;;;10.33;59.28
72110;BME280;59983;52.010;5.420;2023-04-06T09:03:56;101590.44;;;10.34;58.93
72110;BME280;59983;52.010;5.420;2023-04-06T09:06:24;101597.59;;;10.38;58.87
72110;BME280;59983;52.010;5.420;2023-04-06T09:08:52;101591.00;;;10.48;60.35
72110;BME280;59983;52.010;5.420;2023-04-06T09:11:19;101588.91;;;10.54;59.67
72110;BME280;59983;52.010;5.420;2023-04-06T09:13:48;101603.84;;;10.68;59.47
72110;BME280;59983;52.010;5.420;2023-04-06T09:16:15;101592.09;;;10.56;58.67
72110;BME280;59983;52.010;5.420;2023-04-06T09:18:42;101582.22;;;10.51;58.58
72110;BME280;59983;52.010;5.420;2023-04-06T09:21:09;101588.22;;;10.65;59.89
72110;BME280;59983;52.010;5.420;2023-04-06T09:23:36;101588.00;;;10.79;59.88
72110;BME280;59983;52.010;5.420;2023-04-06T09:26:14;101583.69;;;10.78;59.31
72110;BME280;59983;52.010;5.420;2023-04-06T09:28:49;101594.41;;;10.74;59.30
72110;BME280;59983;52.010;5.420;2023-04-06T09:31:23;101591.41;;;10.67;59.16
72110;BME280;59983;52.010;5.420;2023-04-06T09:33:51;101594.78;;;10.64;60.21
72110;BME280;59983;52.010;5.420;2023-04-06T09:36:18;101589.72;;;10.54;61.81
72110;BME280;59983;52.010;5.420;2023-04-06T09:38:56;101591.38;;;10.38;60.75
72110;BME280;59983;52.010;5.420;2023-04-06T09:41:30;101591.69;;;10.36;60.66
72110;BME280;59983;52.010;5.420;2023-04-06T09:44:08;101594.25;;;10.33;60.77
72110;BME280;59983;52.010;5.420;2023-04-06T09:46:40;101589.03;;;10.28;61.00
72110;BME280;59983;52.010;5.420;2023-04-06T09:49:27;101593.97;;;10.26;61.98
72110;BME280;59983;52.010;5.420;2023-04-06T09:51:57;101585.50;;;10.18;62.47
72110;BME280;59983;52.010;5.420;2023-04-06T09:54:28;101592.53;;;10.19;61.45
72110;BME280;59983;52.010;5.420;2023-04-06T09:57:11;101588.38;;;10.22;62.16
72110;BME280;59983;52.010;5.420;2023-04-06T10:02:38;101583.09;;;10.34;63.32
72110;BME280;59983;52.010;5.420;2023-04-06T10:05:09;101583.25;;;10.38;64.37
72110;BME280;59983;52.010;5.420;2023-04-06T10:07:40;101588.00;;;10.41;65.27
72110;BME280;59983;52.010;5.420;2023-04-06T10:10:25;101586.22;;;10.54;64.36
72110;BME280;59983;52.010;5.420;2023-04-06T10:12:52;101593.22;;;10.55;65.24
72110;BME280;59983;52.010;5.420;2023-04-06T10:15:21;101591.13;;;10.60;65.97
72110;BME280;59983;52.010;5.420;2023-04-06T10:17:48;101587.63;;;10.51;67.37
72110;BME280;59983;52.010;5.420;2023-04-06T10:20:22;101593.59;;;10.44;68.20
72110;BME280;59983;52.010;5.420;2023-04-06T10:25:35;101597.94;;;10.19;71.09
72110;BME280;59983;52.010;5.420;2023-04-06T10:28:08;101593.19;;;10.16;71.33
72110;BME280;59983;52.010;5.420;2023-04-06T10:30:42;101595.72;;;10.13;71.92
72110;BME280;59983;52.010;5.420;2023-04-06T10:33:28;101603.41;;;10.02;72.88
72110;BME280;59983;52.010;5.420;2023-04-06T10:35:54;101591.78;;;9.93;74.46
72110;BME280;59983;52.010;5.420;2023-04-06T10:38:37;101601.19;;;9.87;76.10
72110;BME280;59983;52.010;5.420;2023-04-06T10:41:09;101597.34;;;9.88;77.62
72110;BME280;59983;52.010;5.420;2023-04-06T10:43:38;101596.88;;;9.86;78.55
72110;BME280;59983;52.010;5.420;2023-04-06T10:46:06;101604.38;;;9.80;79.20
72110;BME280;59983;52.010;5.420;2023-04-06T10:51:11;101596.75;;;9.65;81.53
72110;BME280;59983;52.010;5.420;2023-04-06T10:53:38;101593.88;;;9.53;82.37
72110;BME280;59983;52.010;5.420;2023-04-06T10:56:10;101588.00;;;9.51;83.10
72110;BME280;59983;52.010;5.420;2023-04-06T10:58:52;101595.78;;;9.44;84.40
72110;BME280;59983;52.010;5.420;2023-04-06T11:01:21;101594.69;;;9.36;85.66
72110;BME280;59983;52.010;5.420;2023-04-06T11:03:50;101584.34;;;9.38;86.37
72110;BME280;59983;52.010;5.420;2023-04-06T11:08:46;101592.16;;;9.40;86.84
72110;BME280;59983;52.010;5.420;2023-04-06T11:11:15;101592.28;;;9.34;88.12
72110;BME280;59983;52.010;5.420;2023-04-06T11:13:50;101584.03;;;9.31;87.83
72110;BME280;59983;52.010;5.420;2023-04-06T11:16:19;101588.31;;;9.23;88.01
72110;BME280;59983;52.010;5.420;2023-04-06T11:18:48;101584.81;;;9.23;89.82
72110;BME280;59983;52.010;5.420;2023-04-06T11:21:15;101580.84;;;9.29;89.16
72110;BME280;59983;52.010;5.420;2023-04-06T11:23:41;101580.84;;;9.29;89.47
72110;BME280;59983;52.010;5.420;2023-04-06T11:26:14;101569.22;;;9.37;89.97
72110;BME280;59983;52.010;5.420;2023-04-06T11:28:42;101566.66;;;9.41;90.35
72110;BME280;59983;52.010;5.420;2023-04-06T11:31:12;101575.25;;;9.34;89.41
72110;BME280;59983;52.010;5.420;2023-04-06T11:33:39;101561.09;;;9.28;90.03
72110;BME280;59983;52.010;5.420;2023-04-06T11:36:06;101557.28;;;9.29;91.30
72110;BME280;59983;52.010;5.420;2023-04-06T11:38:33;101549.75;;;9.35;91.25
72110;BME280;59983;52.010;5.420;2023-04-06T11:41:01;101555.03;;;9.40;91.96
72110;BME280;59983;52.010;5.420;2023-04-06T11:43:31;101545.47;;;9.43;90.65
72110;BME280;59983;52.010;5.420;2023-04-06T11:46:03;101547.56;;;9.37;91.36
72110;BME280;59983;52.010;5.420;2023-04-06T11:48:31;101537.53;;;9.38;91.40
72110;BME280;59983;52.010;5.420;2023-04-06T11:50:59;101541.50;;;9.31;91.88
72110;BME280;59983;52.010;5.420;2023-04-06T11:53:30;101546.44;;;9.38;92.22
72110;BME280;59983;52.010;5.420;2023-04-06T11:55:56;101538.78;;;9.31;92.69
72110;BME280;59983;52.010;5.420;2023-04-06T11:58:23;101546.13;;;9.40;91.94
72110;BME280;59983;52.010;5.420;2023-04-06T12:00:50;101524.13;;;9.32;92.10
72110;BME280;59983;52.010;5.420;2023-04-06T12:03:16;101534.63;;;9.43;93.37
72110;BME280;59983;52.010;5.420;2023-04-06T12:05:44;101529.53;;;9.41;92.30
72110;BME280;59983;52.010;5.420;2023-04-06T12:08:10;101528.91;;;9.44;93.06
72110;BME280;59983;52.010;5.420;2023-04-06T12:10:37;101523.47;;;9.44;92.65
72110;BME280;59983;52.010;5.420;2023-04-06T12:13:04;101524.13;;;9.50;92.54
72110;BME280;59983;52.010;5.420;2023-04-06T12:15:30;101523.00;;;9.59;93.28
72110;BME280;59983;52.010;5.420;2023-04-06T12:17:57;101516.94;;;9.54;92.09
72110;BME280;59983;52.010;5.420;2023-04-06T12:20:24;101521.56;;;9.53;93.07
72110;BME280;59983;52.010;5.420;2023-04-06T12:22:53;101523.00;;;9.51;92.07
72110;BME280;59983;52.010;5.420;2023-04-06T12:25:20;101510.59;;;9.50;91.24
72110;BME280;59983;52.010;5.420;2023-04-06T12:27:47;101511.38;;;9.50;92.53
72110;BME280;59983;52.010;5.420;2023-04-06T12:30:14;101511.22;;;9.64;92.42
72110;BME280;59983;52.010;5.420;2023-04-06T12:32:41;101511.22;;;9.64;92.36
72110;BME280;59983;52.010;5.420;2023-04-06T12:35:08;101513.13;;;9.63;92.93
72110;BME280;59983;52.010;5.420;2023-04-06T12:37:35;101500.84;;;9.57;92.71
72110;BME280;59983;52.010;5.420;2023-04-06T12:40:03;101509.47;;;9.51;92.11
72110;BME280;59983;52.010;5.420;2023-04-06T12:42:30;101516.47;;;9.43;92.34
72110;BME280;59983;52.010;5.420;2023-04-06T12:44:57;101503.25;;;9.50;93.43
72110;BME280;59983;52.010;5.420;2023-04-06T12:47:25;101510.59;;;9.50;94.38
72110;BME280;59983;52.010;5.420;2023-04-06T12:49:52;101511.22;;;9.47;93.67
72110;BME280;59983;52.010;5.420;2023-04-06T12:52:20;101508.34;;;9.43;95.17
72110;BME280;59983;52.010;5.420;2023-04-06T12:54:47;101503.41;;;9.45;96.25
72110;BME280;59983;52.010;5.420;2023-04-06T12:57:16;101494.66;;;9.40;96.36
72110;BME280;59983;52.010;5.420;2023-04-06T12:59:44;101496.59;;;9.39;96.26
72110;BME280;59983;52.010;5.420;2023-04-06T13:02:11;101493.41;;;9.37;96.41
72110;BME280;59983;52.010;5.420;2023-04-06T13:04:38;101495.78;;;9.39;96.64
72110;BME280;59983;52.010;5.420;2023-04-06T13:07:05;101484.00;;;9.34;96.77
72110;BME280;59983;52.010;5.420;2023-04-06T13:09:31;101479.88;;;9.37;97.40
72110;BME280;59983;52.010;5.420;2023-04-06T13:11:58;101481.47;;;9.38;98.13